Time;durP1;ratioP1;P1;durP2;ratioP2;P2;SDS_P1;SDS_P2;PMS_P1;PMS_P2;Temp;Humidity;BMP_temperature;BMP_pressure;BME280_temperature;BME280_humidity;BME280_pressure;Samples;Min_cycle;Max_cycle;Signal;HPM_P1;HPM_P2
2024/03/05 00:01:57;;;;;;;6.43;0.95;;;;;;;;;;4872869;29;20064;-73
2024/03/05 00:04:27;;;;;;;8.55;1.10;;;;;;;;;;4871940;29;20057;-73
2024/03/05 00:06:58;;;;;;;6.30;1.27;;;;;;;;;;4871395;29;20057;-73
2024/03/05 00:09:30;;;;;;;4.28;0.70;;;;;;;;;;4871692;29;20057;-73
2024/03/05 00:12:02;;;;;;;3.90;0.90;;;;;;;;;;4871965;29;20045;-73
2024/03/05 00:14:33;;;;;;;6.65;1.38;;;;;;;;;;4871931;29;20037;-73
2024/03/05 00:17:03;;;;;;;6.18;1.70;;;;;;;;;;4871340;29;20433;-73
2024/03/05 00:19:36;;;;;;;8.68;1.35;;;;;;;;;;4871732;29;20068;-74
2024/03/05 00:22:08;;;;;;;6.35;1.20;;;;;;;;;;4871485;29;20057;-73
2024/03/05 00:24:39;;;;;;;9.50;1.30;;;;;;;;;;4871723;29;20053;-74
2024/03/05 00:27:08;;;;;;;6.38;1.40;;;;;;;;;;4871375;29;20052;-74
2024/03/05 00:29:42;;;;;;;7.15;1.30;;;;;;;;;;4870864;29;20053;-74
2024/03/05 00:32:14;;;;;;;5.75;1.10;;;;;;;;;;4871423;29;20060;-73
2024/03/05 00:34:44;;;;;;;5.35;0.60;;;;;;;;;;4852837;29;20378;-73
2024/03/05 00:37:14;;;;;;;19.27;6.40;;;;;;;;;;4851908;29;20049;-73
2024/03/05 00:39:44;;;;;;;4.70;0.93;;;;;;;;;;4852095;29;20054;-75
2024/03/05 00:42:16;;;;;;;7.40;1.17;;;;;;;;;;4852529;29;20053;-76
2024/03/05 00:44:47;;;;;;;6.93;0.90;;;;;;;;;;4852347;29;20068;-74
2024/03/05 00:47:18;;;;;;;8.23;1.08;;;;;;;;;;4850524;29;20045;-74
2024/03/05 00:49:52;;;;;;;3.63;0.60;;;;;;;;;;4850683;29;20061;-74
2024/03/05 00:52:24;;;;;;;7.20;1.10;;;;;;;;;;4850427;29;20718;-73
2024/03/05 00:54:57;;;;;;;1.92;0.75;;;;;;;;;;4850750;29;20076;-74
2024/03/05 00:57:28;;;;;;;6.68;1.02;;;;;;;;;;4851101;29;20053;-74
2024/03/05 01:00:01;;;;;;;9.63;1.35;;;;;;;;;;4851353;29;20060;-75
2024/03/05 01:02:33;;;;;;;7.28;0.93;;;;;;;;;;4852165;29;20057;-74
2024/03/05 01:05:07;;;;;;;4.40;1.20;;;;;;;;;;4852181;29;20626;-74
2024/03/05 01:07:38;;;;;;;4.72;0.75;;;;;;;;;;4850448;29;20571;-73
2024/03/05 01:10:09;;;;;;;9.15;0.95;;;;;;;;;;4851986;29;20057;-74
2024/03/05 01:12:41;;;;;;;7.90;0.98;;;;;;;;;;4852142;29;20057;-74
2024/03/05 01:15:12;;;;;;;5.15;0.93;;;;;;;;;;4852617;29;20054;-73
2024/03/05 01:17:43;;;;;;;6.28;0.98;;;;;;;;;;4852667;29;20054;-73
2024/03/05 01:20:16;;;;;;;1.60;0.70;;;;;;;;;;4851072;29;20476;-73
2024/03/05 01:22:47;;;;;;;6.60;0.90;;;;;;;;;;4852158;29;20053;-73
2024/03/05 01:25:19;;;;;;;4.45;0.70;;;;;;;;;;4852296;29;20057;-77
2024/03/05 01:27:49;;;;;;;7.65;0.80;;;;;;;;;;4852300;29;20045;-73
2024/03/05 01:30:19;;;;;;;3.00;0.90;;;;;;;;;;4852208;29;20053;-74
2024/03/05 01:32:51;;;;;;;7.60;0.63;;;;;;;;;;4865668;29;20640;-73
2024/03/05 01:35:23;;;;;;;6.18;0.70;;;;;;;;;;4851712;29;20076;-73
2024/03/05 01:37:54;;;;;;;7.07;0.88;;;;;;;;;;4851818;29;20056;-74
2024/03/05 01:40:25;;;;;;;9.60;1.67;;;;;;;;;;4851921;29;20061;-74
2024/03/05 01:42:54;;;;;;;3.78;1.30;;;;;;;;;;4851535;29;20053;-74
2024/03/05 01:45:26;;;;;;;8.82;0.93;;;;;;;;;;4851486;29;20053;-74
2024/03/05 01:47:59;;;;;;;4.35;0.82;;;;;;;;;;4851279;29;20053;-74
2024/03/05 01:50:30;;;;;;;3.15;0.75;;;;;;;;;;4851617;29;20049;-74
2024/03/05 01:53:01;;;;;;;4.30;0.95;;;;;;;;;;4851703;29;20057;-74
2024/03/05 01:55:35;;;;;;;7.63;0.70;;;;;;;;;;4850716;29;20073;-74
2024/03/05 01:58:09;;;;;;;6.03;1.23;;;;;;;;;;4851021;29;20508;-74
2024/03/05 02:00:40;;;;;;;5.50;0.60;;;;;;;;;;4851535;29;20492;-74
2024/03/05 02:03:11;;;;;;;3.33;0.63;;;;;;;;;;4851523;29;20409;-74
2024/03/05 02:05:49;;;;;;;4.65;0.77;;;;;;;;;;4851351;29;20065;-74
2024/03/05 02:08:21;;;;;;;5.15;0.63;;;;;;;;;;4851052;29;20060;-74
2024/03/05 02:10:51;;;;;;;10.30;0.85;;;;;;;;;;4851476;29;21052;-74
2024/03/05 02:13:23;;;;;;;3.70;0.70;;;;;;;;;;4850533;29;20532;-74
2024/03/05 02:15:55;;;;;;;3.83;1.00;;;;;;;;;;4851591;29;20061;-73
2024/03/05 02:18:26;;;;;;;7.35;0.80;;;;;;;;;;4850687;29;20053;-74
2024/03/05 02:21:03;;;;;;;2.92;0.95;;;;;;;;;;4849363;29;20050;-73
2024/03/05 02:23:33;;;;;;;1.42;0.63;;;;;;;;;;4850969;29;20060;-73
2024/03/05 02:26:04;;;;;;;8.82;0.75;;;;;;;;;;4851516;29;20509;-73
2024/03/05 02:28:38;;;;;;;7.50;1.00;;;;;;;;;;4851221;29;20058;-74
2024/03/05 02:31:08;;;;;;;6.07;0.70;;;;;;;;;;4850632;29;20056;-74
2024/03/05 02:33:39;;;;;;;1.85;0.60;;;;;;;;;;4849200;29;20045;-74
2024/03/05 02:36:11;;;;;;;6.13;0.80;;;;;;;;;;4851094;29;20057;-73
2024/03/05 02:38:43;;;;;;;2.72;0.57;;;;;;;;;;4851036;29;20053;-74
2024/03/05 02:41:14;;;;;;;4.90;1.05;;;;;;;;;;4850433;29;20046;-74
2024/03/05 02:43:45;;;;;;;4.65;0.98;;;;;;;;;;4850634;29;20064;-73
2024/03/05 02:46:17;;;;;;;4.05;0.75;;;;;;;;;;4851123;29;20061;-73
2024/03/05 02:48:49;;;;;;;7.47;0.98;;;;;;;;;;4851003;29;20053;-74
2024/03/05 02:51:19;;;;;;;4.38;0.85;;;;;;;;;;4850547;29;20050;-74
2024/03/05 02:53:49;;;;;;;3.85;0.65;;;;;;;;;;4850989;29;20505;-74
2024/03/05 02:56:20;;;;;;;6.25;0.65;;;;;;;;;;4850743;29;20088;-74
2024/03/05 02:58:52;;;;;;;5.15;0.75;;;;;;;;;;4850151;29;20505;-74
2024/03/05 03:01:23;;;;;;;4.93;1.05;;;;;;;;;;4850674;29;20061;-73
2024/03/05 03:03:54;;;;;;;4.53;0.95;;;;;;;;;;4851149;29;20056;-74
2024/03/05 03:06:24;;;;;;;4.80;0.85;;;;;;;;;;4849829;29;20057;-74
2024/03/05 03:08:56;;;;;;;9.82;1.33;;;;;;;;;;4849990;29;20088;-74
2024/03/05 03:11:27;;;;;;;6.78;0.90;;;;;;;;;;4850534;29;20056;-74
2024/03/05 03:13:58;;;;;;;4.25;0.50;;;;;;;;;;4848420;29;20058;-74
2024/03/05 03:16:28;;;;;;;3.63;0.63;;;;;;;;;;4850017;29;20060;-74
2024/03/05 03:18:58;;;;;;;6.82;0.90;;;;;;;;;;4850710;29;20065;-74
2024/03/05 03:21:30;;;;;;;6.78;0.80;;;;;;;;;;4848861;29;20416;-74
2024/03/05 03:24:02;;;;;;;5.45;0.55;;;;;;;;;;4849692;29;20060;-74
2024/03/05 03:26:33;;;;;;;3.83;0.60;;;;;;;;;;4850246;29;20058;-74
2024/03/05 03:29:05;;;;;;;4.78;0.77;;;;;;;;;;4850599;29;20050;-74
2024/03/05 03:31:38;;;;;;;6.63;0.88;;;;;;;;;;4850192;29;20061;-74
2024/03/05 03:34:10;;;;;;;9.98;0.95;;;;;;;;;;4850572;29;20533;-73
2024/03/05 03:36:41;;;;;;;2.72;0.63;;;;;;;;;;4849406;29;20045;-74
2024/03/05 03:39:23;;;;;;;4.72;0.60;;;;;;;;;;4850104;29;20053;-74
2024/03/05 03:41:56;;;;;;;4.45;0.73;;;;;;;;;;4850536;29;20398;-74
2024/03/05 03:44:27;;;;;;;2.92;0.50;;;;;;;;;;4850057;29;20436;-74
2024/03/05 03:46:58;;;;;;;5.40;1.05;;;;;;;;;;4850018;29;20513;-74
2024/03/05 03:49:28;;;;;;;3.67;0.63;;;;;;;;;;4850145;29;20517;-74
2024/03/05 03:51:59;;;;;;;3.47;0.82;;;;;;;;;;4849667;29;20080;-74
2024/03/05 03:54:29;;;;;;;1.83;0.40;;;;;;;;;;4850395;29;20049;-74
2024/03/05 03:57:00;;;;;;;4.93;0.50;;;;;;;;;;4849559;29;20060;-73
2024/03/05 03:59:35;;;;;;;3.85;0.60;;;;;;;;;;4849731;29;20058;-74
2024/03/05 04:02:07;;;;;;;3.67;1.00;;;;;;;;;;4848453;29;20069;-73
2024/03/05 04:04:38;;;;;;;4.45;0.70;;;;;;;;;;4850279;29;20049;-74
2024/03/05 04:07:08;;;;;;;2.33;0.75;;;;;;;;;;4850140;29;20049;-73
2024/03/05 04:09:38;;;;;;;2.53;0.60;;;;;;;;;;4849500;29;20053;-74
2024/03/05 04:12:12;;;;;;;6.13;0.82;;;;;;;;;;4849752;29;20054;-74
2024/03/05 04:14:44;;;;;;;2.30;0.85;;;;;;;;;;4849778;29;20058;-74
2024/03/05 04:17:15;;;;;;;5.70;0.80;;;;;;;;;;4849756;29;20565;-74
2024/03/05 04:19:45;;;;;;;3.15;0.75;;;;;;;;;;4851732;29;20573;-74
2024/03/05 04:22:17;;;;;;;2.83;0.52;;;;;;;;;;4853420;29;20050;-73
2024/03/05 04:24:59;;;;;;;4.57;0.80;;;;;;;;;;4853437;29;20041;-73
2024/03/05 04:27:30;;;;;;;11.50;1.00;;;;;;;;;;4853508;29;20058;-74
2024/03/05 04:30:02;;;;;;;3.13;0.80;;;;;;;;;;4852815;29;20050;-73
2024/03/05 04:32:35;;;;;;;6.15;1.05;;;;;;;;;;4852502;29;20479;-73
2024/03/05 04:35:11;;;;;;;3.65;0.70;;;;;;;;;;4852918;29;20058;-74
2024/03/05 04:37:42;;;;;;;2.95;0.70;;;;;;;;;;4852955;29;20049;-73
2024/03/05 04:40:13;;;;;;;2.55;0.65;;;;;;;;;;4853072;29;20046;-74
2024/03/05 04:42:48;;;;;;;1.75;0.68;;;;;;;;;;4852866;29;20057;-73
2024/03/05 04:45:20;;;;;;;2.30;0.65;;;;;;;;;;4850811;29;20377;-74
2024/03/05 04:47:53;;;;;;;1.05;0.45;;;;;;;;;;4851639;29;20094;-73
2024/03/05 04:50:22;;;;;;;1.67;0.63;;;;;;;;;;4852785;29;20045;-73
2024/03/05 04:52:55;;;;;;;9.38;1.00;;;;;;;;;;4852625;29;20056;-74
2024/03/05 04:55:26;;;;;;;4.30;0.65;;;;;;;;;;4852643;29;20053;-73
2024/03/05 04:57:56;;;;;;;4.70;0.45;;;;;;;;;;4853218;29;20054;-74
2024/03/05 05:00:26;;;;;;;7.20;1.00;;;;;;;;;;4852205;29;20054;-73
2024/03/05 05:02:58;;;;;;;3.75;0.80;;;;;;;;;;4852151;29;20420;-73
2024/03/05 05:05:31;;;;;;;4.82;0.80;;;;;;;;;;4852483;29;20050;-73
2024/03/05 05:08:03;;;;;;;4.07;0.52;;;;;;;;;;4852311;29;20430;-73
2024/03/05 05:10:34;;;;;;;5.20;0.80;;;;;;;;;;4852888;29;20073;-73
2024/03/05 05:13:05;;;;;;;6.25;0.60;;;;;;;;;;4852843;29;20050;-73
2024/03/05 05:15:37;;;;;;;3.50;1.05;;;;;;;;;;4852563;29;21119;-74
2024/03/05 05:18:07;;;;;;;5.82;0.60;;;;;;;;;;4851822;29;20517;-74
2024/03/05 05:20:37;;;;;;;7.82;0.82;;;;;;;;;;4852129;29;20061;-73
2024/03/05 05:23:08;;;;;;;6.22;0.90;;;;;;;;;;4852111;29;20057;-73
2024/03/05 05:25:39;;;;;;;4.10;0.90;;;;;;;;;;4852656;29;20057;-74
2024/03/05 05:28:11;;;;;;;4.03;0.90;;;;;;;;;;4851625;29;20064;-74
2024/03/05 05:30:42;;;;;;;3.83;0.80;;;;;;;;;;4850641;29;20053;-73
2024/03/05 05:33:12;;;;;;;4.95;0.77;;;;;;;;;;4851824;29;20060;-73
2024/03/05 05:35:43;;;;;;;5.22;1.10;;;;;;;;;;4852250;29;20054;-73
2024/03/05 05:38:16;;;;;;;3.08;0.73;;;;;;;;;;4851829;29;20540;-73
2024/03/05 05:40:47;;;;;;;1.45;0.65;;;;;;;;;;4851446;29;20052;-74
2024/03/05 05:43:18;;;;;;;6.85;0.70;;;;;;;;;;4850021;29;20053;-74
2024/03/05 05:45:50;;;;;;;3.28;0.80;;;;;;;;;;4852017;29;20045;-74
2024/03/05 05:48:24;;;;;;;3.92;0.80;;;;;;;;;;4851749;29;20050;-74
2024/03/05 05:50:58;;;;;;;1.58;0.85;;;;;;;;;;4852169;29;20057;-73
2024/03/05 05:53:29;;;;;;;1.40;0.52;;;;;;;;;;4851280;29;20524;-73
2024/03/05 05:56:00;;;;;;;1.77;0.50;;;;;;;;;;4850585;29;20087;-73
2024/03/05 05:58:36;;;;;;;3.97;0.77;;;;;;;;;;4850321;29;20421;-73
2024/03/05 06:01:09;;;;;;;;;;;;;;;;;;4851839;29;20049;-73
2024/03/05 06:03:47;;;;;;;6.65;0.60;;;;;;;;;;4851100;29;19928;-74
2024/03/05 06:06:19;;;;;;;5.30;0.75;;;;;;;;;;4851128;29;20049;-73
2024/03/05 06:08:51;;;;;;;2.50;0.60;;;;;;;;;;4864589;29;20053;-74
2024/03/05 06:11:23;;;;;;;2.78;0.63;;;;;;;;;;4851805;29;20505;-73
2024/03/05 06:13:53;;;;;;;1.05;0.60;;;;;;;;;;4851865;29;20389;-74
2024/03/05 06:16:24;;;;;;;1.35;0.65;;;;;;;;;;4849323;29;20112;-74
2024/03/05 06:18:56;;;;;;;1.65;0.60;;;;;;;;;;4851160;29;20437;-73
2024/03/05 06:21:27;;;;;;;4.82;0.55;;;;;;;;;;4851350;29;20057;-73
2024/03/05 06:23:59;;;;;;;6.82;0.73;;;;;;;;;;4850945;29;20064;-74
2024/03/05 06:26:38;;;;;;;4.45;1.17;;;;;;;;;;4851136;29;20045;-73
2024/03/05 06:29:11;;;;;;;3.85;0.73;;;;;;;;;;4850951;29;20061;-73
2024/03/05 06:31:41;;;;;;;2.97;0.70;;;;;;;;;;4851101;29;20053;-74
2024/03/05 06:34:11;;;;;;;3.97;0.70;;;;;;;;;;4851188;29;20056;-74
2024/03/05 06:36:43;;;;;;;1.80;0.60;;;;;;;;;;4851878;29;20061;-74
2024/03/05 06:39:19;;;;;;;2.17;0.57;;;;;;;;;;4851312;29;20057;-74
2024/03/05 06:41:53;;;;;;;5.28;0.57;;;;;;;;;;4850473;29;20148;-73
2024/03/05 06:44:25;;;;;;;2.15;0.63;;;;;;;;;;4850735;29;20053;-73
2024/03/05 06:46:56;;;;;;;5.80;0.80;;;;;;;;;;4850679;29;20061;-74
2024/03/05 06:49:29;;;;;;;6.43;0.50;;;;;;;;;;4849201;29;20445;-74
2024/03/05 06:57:39;;;;;;;3.80;0.55;;;;;;;;;;4850317;29;20057;-73
2024/03/05 07:00:15;;;;;;;2.38;0.75;;;;;;;;;;4850409;29;20634;-74
2024/03/05 07:02:46;;;;;;;1.73;0.57;;;;;;;;;;4850241;29;20058;-73
2024/03/05 07:05:16;;;;;;;4.50;0.77;;;;;;;;;;4851698;29;20059;-73
2024/03/05 07:07:46;;;;;;;1.27;0.30;;;;;;;;;;4850187;29;20056;-73
2024/03/05 07:10:21;;;;;;;1.48;0.40;;;;;;;;;;4850984;29;20698;-74
2024/03/05 07:12:53;;;;;;;3.97;0.90;;;;;;;;;;4850318;29;20045;-74
2024/03/05 07:15:25;;;;;;;3.42;0.80;;;;;;;;;;4850338;29;20087;-74
2024/03/05 07:17:55;;;;;;;2.95;0.70;;;;;;;;;;4850801;29;20053;-73
2024/03/05 07:20:27;;;;;;;1.20;0.70;;;;;;;;;;4850429;29;20050;-74
2024/03/05 07:23:00;;;;;;;3.35;0.70;;;;;;;;;;4849061;29;20057;-73
2024/03/05 07:25:32;;;;;;;1.05;0.68;;;;;;;;;;4850263;29;20336;-73
2024/03/05 07:28:02;;;;;;;3.50;0.82;;;;;;;;;;4850226;29;20092;-74
2024/03/05 07:30:34;;;;;;;2.20;0.70;;;;;;;;;;4850154;29;20054;-73
2024/03/05 07:33:06;;;;;;;2.33;0.60;;;;;;;;;;4850064;29;20870;-74
2024/03/05 07:35:43;;;;;;;0.50;0.50;;;;;;;;;;4848112;29;20064;-73
2024/03/05 07:38:15;;;;;;;5.35;0.70;;;;;;;;;;4850566;29;20053;-73
2024/03/05 07:40:46;;;;;;;3.65;0.50;;;;;;;;;;4850039;29;20500;-73
2024/03/05 07:43:17;;;;;;;5.30;0.80;;;;;;;;;;4850480;29;20057;-73
2024/03/05 07:45:48;;;;;;;3.97;1.00;;;;;;;;;;4850339;29;20053;-72
2024/03/05 07:48:19;;;;;;;7.35;1.73;;;;;;;;;;4849667;29;20049;-73
2024/03/05 07:50:49;;;;;;;4.57;0.70;;;;;;;;;;4849833;29;20049;-73
2024/03/05 07:53:20;;;;;;;5.65;0.70;;;;;;;;;;4850253;29;20058;-73
2024/03/05 07:55:56;;;;;;;4.57;0.60;;;;;;;;;;4853646;29;20413;-74
2024/03/05 07:58:26;;;;;;;;;;;;;;;;;;4855177;29;20497;-73
2024/03/05 08:00:58;;;;;;;2.60;0.55;;;;;;;;;;4853921;29;19935;-73
2024/03/05 08:03:28;;;;;;;2.03;0.60;;;;;;;;;;4853514;29;20059;-74
2024/03/05 08:05:59;;;;;;;1.95;0.80;;;;;;;;;;4853904;29;20076;-73
2024/03/05 08:08:30;;;;;;;1.40;0.50;;;;;;;;;;4851823;29;20053;-73
2024/03/05 08:11:00;;;;;;;2.72;0.60;;;;;;;;;;4851407;29;20049;-73
2024/03/05 08:13:34;;;;;;;1.92;0.52;;;;;;;;;;4852751;29;20057;-73
2024/03/05 08:16:08;;;;;;;3.20;0.50;;;;;;;;;;4852466;29;20695;-74
2024/03/05 08:18:41;;;;;;;1.02;0.55;;;;;;;;;;4851693;29;20072;-74
2024/03/05 08:21:11;;;;;;;3.20;0.50;;;;;;;;;;4852939;29;20065;-74
2024/03/05 08:23:44;;;;;;;2.08;0.43;;;;;;;;;;4851899;29;20056;-73
2024/03/05 08:26:14;;;;;;;3.85;0.50;;;;;;;;;;4853287;29;20052;-74
2024/03/05 08:28:46;;;;;;;4.15;0.80;;;;;;;;;;4852866;29;20549;-73
2024/03/05 08:31:16;;;;;;;1.92;0.70;;;;;;;;;;4852796;29;20061;-73
2024/03/05 08:33:47;;;;;;;3.40;0.63;;;;;;;;;;4852982;29;20516;-74
2024/03/05 08:36:18;;;;;;;1.83;0.52;;;;;;;;;;4852324;29;20104;-73
2024/03/05 08:38:49;;;;;;;3.72;0.50;;;;;;;;;;4852691;29;20082;-73
2024/03/05 08:41:20;;;;;;;1.73;0.63;;;;;;;;;;4851086;29;20424;-74
2024/03/05 08:43:50;;;;;;;3.03;0.57;;;;;;;;;;4853164;29;20824;-74
2024/03/05 08:46:22;;;;;;;4.38;0.60;;;;;;;;;;4852798;29;20803;-73
2024/03/05 08:48:52;;;;;;;3.92;0.68;;;;;;;;;;4852444;29;20064;-74
2024/03/05 08:51:23;;;;;;;7.70;0.85;;;;;;;;;;4852653;29;20054;-75
2024/03/05 08:53:55;;;;;;;2.53;0.70;;;;;;;;;;4852599;29;20515;-74
2024/03/05 08:56:26;;;;;;;1.58;0.32;;;;;;;;;;4852229;29;20061;-74
2024/03/05 08:58:58;;;;;;;6.80;1.25;;;;;;;;;;4853105;29;20069;-74
2024/03/05 09:01:29;;;;;;;7.18;0.90;;;;;;;;;;4835576;29;20065;-75
2024/03/05 09:04:00;;;;;;;7.45;0.80;;;;;;;;;;4852385;29;20054;-75
2024/03/05 09:06:32;;;;;;;3.10;0.60;;;;;;;;;;4852356;29;20640;-74
2024/03/05 09:09:03;;;;;;;3.20;0.52;;;;;;;;;;4852522;29;20042;-74
2024/03/05 09:11:35;;;;;;;2.30;0.65;;;;;;;;;;4852009;29;20061;-75
2024/03/05 09:14:05;;;;;;;2.15;0.45;;;;;;;;;;4852355;29;20890;-74
2024/03/05 09:16:39;;;;;;;3.05;0.70;;;;;;;;;;4851040;29;20065;-74
2024/03/05 09:19:10;;;;;;;0.60;0.55;;;;;;;;;;4852564;29;20058;-75
2024/03/05 09:21:44;;;;;;;5.57;0.90;;;;;;;;;;4851322;29;20060;-74
2024/03/05 09:24:14;;;;;;;2.70;1.05;;;;;;;;;;4851796;29;20064;-74
2024/03/05 09:26:47;;;;;;;1.70;0.60;;;;;;;;;;4853357;29;20061;-74
2024/03/05 09:29:18;;;;;;;6.57;0.90;;;;;;;;;;4851703;29;20054;-75
2024/03/05 09:31:48;;;;;;;6.50;1.05;;;;;;;;;;4851863;29;20060;-74
2024/03/05 09:34:19;;;;;;;3.88;1.15;;;;;;;;;;4850295;29;20647;-74
2024/03/05 09:36:51;;;;;;;1.95;0.55;;;;;;;;;;4850013;29;20049;-75
2024/03/05 09:39:23;;;;;;;11.38;0.70;;;;;;;;;;4852256;29;20045;-74
2024/03/05 09:41:54;;;;;;;7.32;0.85;;;;;;;;;;4851616;29;20050;-74
2024/03/05 09:44:25;;;;;;;6.70;0.82;;;;;;;;;;4852086;29;20374;-78
2024/03/05 09:47:01;;;;;;;6.75;0.70;;;;;;;;;;4851534;29;20088;-75
2024/03/05 09:49:33;;;;;;;3.58;0.70;;;;;;;;;;4849964;29;20053;-74
2024/03/05 09:52:05;;;;;;;3.15;0.60;;;;;;;;;;4851488;29;20053;-76
2024/03/05 09:54:36;;;;;;;0.85;0.70;;;;;;;;;;4851818;29;20542;-74
2024/03/05 09:57:08;;;;;;;2.47;0.50;;;;;;;;;;4849806;29;20057;-74
2024/03/05 09:59:39;;;;;;;1.25;0.55;;;;;;;;;;4851623;29;20437;-74
2024/03/05 10:02:13;;;;;;;2.45;0.70;;;;;;;;;;4850161;29;20529;-75
2024/03/05 10:04:45;;;;;;;6.15;0.60;;;;;;;;;;4851692;29;21193;-74
2024/03/05 10:07:27;;;;;;;2.25;0.70;;;;;;;;;;4851448;29;20057;-75
2024/03/05 10:10:10;;;;;;;2.67;1.05;;;;;;;;;;4851003;29;20053;-74
2024/03/05 10:12:41;;;;;;;2.28;0.50;;;;;;;;;;4851492;29;20394;-75
2024/03/05 10:15:20;;;;;;;6.28;1.20;;;;;;;;;;4851034;29;20057;-74
2024/03/05 10:17:54;;;;;;;5.93;0.80;;;;;;;;;;4848666;29;20049;-74
2024/03/05 10:20:29;;;;;;;3.00;0.70;;;;;;;;;;4851072;29;20053;-76
2024/03/05 10:23:02;;;;;;;5.65;1.27;;;;;;;;;;4850943;29;20054;-76
2024/03/05 10:25:34;;;;;;;6.10;0.93;;;;;;;;;;4851685;29;20060;-76
2024/03/05 10:28:09;;;;;;;3.17;0.75;;;;;;;;;;4854375;29;20051;-74
2024/03/05 10:30:42;;;;;;;8.07;1.00;;;;;;;;;;4869533;29;20057;-81
2024/03/05 10:33:13;;;;;;;7.10;1.15;;;;;;;;;;4869407;29;20063;-75
2024/03/05 10:35:50;;;;;;;5.55;1.10;;;;;;;;;;4868938;29;20064;-74
2024/03/05 10:38:23;;;;;;;5.75;0.90;;;;;;;;;;4869560;29;20064;-74
2024/03/05 10:40:55;;;;;;;9.95;1.00;;;;;;;;;;4869193;29;20048;-74
2024/03/05 10:43:26;;;;;;;2.50;0.73;;;;;;;;;;4869641;29;20053;-75
2024/03/05 10:45:57;;;;;;;8.25;0.70;;;;;;;;;;4868327;29;20049;-75
2024/03/05 10:48:30;;;;;;;7.25;1.38;;;;;;;;;;4869022;29;20052;-74
2024/03/05 10:51:02;;;;;;;9.98;1.70;;;;;;;;;;4869134;29;20045;-74
2024/03/05 10:53:33;;;;;;;6.80;0.70;;;;;;;;;;4870508;29;20041;-82
2024/03/05 10:56:06;;;;;;;7.90;0.93;;;;;;;;;;4867708;29;20065;-75
2024/03/05 11:01:23;;;;;;;6.07;0.70;;;;;;;;;;4869163;29;20535;-74
2024/03/05 11:03:56;;;;;;;6.63;0.82;;;;;;;;;;4867460;29;20053;-75
2024/03/05 11:06:27;;;;;;;4.05;0.88;;;;;;;;;;4868836;29;20421;-74
2024/03/05 11:09:00;;;;;;;3.85;0.80;;;;;;;;;;4868627;29;20052;-74
2024/03/05 11:11:32;;;;;;;2.55;0.52;;;;;;;;;;4869738;29;20060;-74
2024/03/05 11:14:03;;;;;;;3.67;1.05;;;;;;;;;;4867943;29;20060;-73
2024/03/05 11:16:34;;;;;;;4.15;0.93;;;;;;;;;;4868761;29;20132;-75
2024/03/05 11:19:10;;;;;;;3.42;1.15;;;;;;;;;;4869314;29;20052;-76
2024/03/05 11:21:43;;;;;;;7.43;2.22;;;;;;;;;;4868811;29;20685;-74
2024/03/05 11:24:13;;;;;;;4.13;0.82;;;;;;;;;;4866678;29;20555;-75
2024/03/05 11:26:44;;;;;;;5.28;0.70;;;;;;;;;;4868928;29;20045;-73
2024/03/05 11:29:21;;;;;;;7.65;1.20;;;;;;;;;;4872056;29;20429;-73
2024/03/05 11:31:57;;;;;;;6.43;1.00;;;;;;;;;;4872761;29;20394;-74
2024/03/05 11:34:29;;;;;;;7.45;1.30;;;;;;;;;;4872445;29;20056;-75
2024/03/05 11:37:09;;;;;;;3.13;0.90;;;;;;;;;;4872551;29;20412;-75
2024/03/05 11:39:46;;;;;;;2.25;0.88;;;;;;;;;;4869504;29;20552;-75
2024/03/05 11:42:20;;;;;;;2.97;0.85;;;;;;;;;;4870830;29;20056;-74
2024/03/05 11:44:52;;;;;;;4.60;0.82;;;;;;;;;;4868801;29;20045;-74
2024/03/05 11:47:23;;;;;;;2.42;0.70;;;;;;;;;;4870984;29;20045;-75
2024/03/05 11:49:55;;;;;;;11.73;1.50;;;;;;;;;;4870649;29;20060;-75
2024/03/05 11:52:27;;;;;;;5.85;1.10;;;;;;;;;;4870439;29;20060;-76
2024/03/05 11:55:06;;;;;;;9.32;0.82;;;;;;;;;;4870072;29;20056;-74
2024/03/05 11:57:36;;;;;;;2.83;1.02;;;;;;;;;;4872693;29;20060;-72
2024/03/05 12:00:19;;;;;;;10.77;1.20;;;;;;;;;;4872071;29;20053;-73
2024/03/05 12:02:55;;;;;;;6.68;1.00;;;;;;;;;;4872401;29;20053;-74
2024/03/05 12:05:29;;;;;;;7.57;1.10;;;;;;;;;;4872030;29;20059;-74
2024/03/05 12:08:03;;;;;;;5.25;0.98;;;;;;;;;;4871807;29;20052;-73
2024/03/05 12:10:36;;;;;;;9.40;1.17;;;;;;;;;;4871724;29;20053;-74
2024/03/05 12:13:10;;;;;;;10.05;1.45;;;;;;;;;;4872340;29;20049;-73
2024/03/05 12:15:40;;;;;;;5.47;1.00;;;;;;;;;;4872011;29;20428;-73
2024/03/05 12:18:10;;;;;;;2.15;0.63;;;;;;;;;;4871563;29;20053;-72
2024/03/05 12:20:41;;;;;;;4.20;0.80;;;;;;;;;;4871526;29;20606;-73
2024/03/05 12:23:19;;;;;;;6.50;0.85;;;;;;;;;;4871952;29;20064;-73
2024/03/05 12:26:13;;;;;;;31.15;3.67;;;;;;;;;;4870254;29;20060;-73
2024/03/05 12:28:44;;;;;;;15.10;3.63;;;;;;;;;;4871700;29;20065;-72
2024/03/05 12:31:15;;;;;;;7.30;0.82;;;;;;;;;;4871254;29;20053;-75
2024/03/05 12:33:48;;;;;;;5.60;0.80;;;;;;;;;;4871479;29;20049;-73
2024/03/05 12:36:19;;;;;;;5.55;0.60;;;;;;;;;;4870199;29;20068;-73
2024/03/05 12:38:49;;;;;;;2.83;0.65;;;;;;;;;;4869815;29;20065;-73
2024/03/05 12:41:20;;;;;;;11.05;2.53;;;;;;;;;;4870559;29;20068;-73
2024/03/05 12:43:55;;;;;;;6.43;1.08;;;;;;;;;;4871413;29;20053;-73
2024/03/05 12:46:26;;;;;;;5.97;0.63;;;;;;;;;;4871458;29;20053;-73
2024/03/05 12:48:58;;;;;;;4.80;0.70;;;;;;;;;;4871609;29;20060;-73
2024/03/05 12:51:30;;;;;;;4.70;1.40;;;;;;;;;;4872044;29;20493;-73
2024/03/05 12:54:05;;;;;;;2.70;0.60;;;;;;;;;;4871104;29;20594;-74
2024/03/05 12:56:45;;;;;;;5.88;0.90;;;;;;;;;;4870742;29;20065;-74
2024/03/05 12:59:21;;;;;;;4.00;0.80;;;;;;;;;;4871437;29;20053;-74
2024/03/05 13:01:53;;;;;;;3.65;0.52;;;;;;;;;;4871063;29;20434;-74
2024/03/05 13:04:27;;;;;;;5.63;1.35;;;;;;;;;;4870738;29;20049;-74
2024/03/05 13:07:00;;;;;;;6.03;0.85;;;;;;;;;;4870754;29;20037;-74
2024/03/05 13:09:30;;;;;;;4.10;0.90;;;;;;;;;;4870506;29;20056;-73
2024/03/05 13:12:00;;;;;;;5.05;0.75;;;;;;;;;;4869748;29;20439;-74
2024/03/05 13:14:31;;;;;;;6.90;0.73;;;;;;;;;;4870594;29;20045;-74
2024/03/05 13:17:04;;;;;;;7.75;1.33;;;;;;;;;;4871150;29;20481;-73
2024/03/05 13:19:38;;;;;;;4.72;1.30;;;;;;;;;;4869056;29;20526;-74
2024/03/05 13:22:08;;;;;;;3.03;0.90;;;;;;;;;;4870319;29;20072;-74
2024/03/05 13:24:39;;;;;;;2.90;0.55;;;;;;;;;;4871052;29;20053;-74
2024/03/05 13:27:10;;;;;;;5.88;0.60;;;;;;;;;;4870843;29;20061;-74
2024/03/05 13:29:41;;;;;;;5.60;0.80;;;;;;;;;;4870227;29;20053;-74
2024/03/05 13:32:11;;;;;;;3.83;0.90;;;;;;;;;;4870248;29;20526;-74
2024/03/05 13:34:43;;;;;;;3.08;0.98;;;;;;;;;;4870181;29;20519;-74
2024/03/05 13:37:15;;;;;;;6.93;1.48;;;;;;;;;;4870405;29;20049;-74
2024/03/05 13:39:46;;;;;;;4.07;1.60;;;;;;;;;;4871090;29;20053;-75
2024/03/05 13:42:19;;;;;;;8.20;1.20;;;;;;;;;;4871335;29;20054;-72
2024/03/05 13:44:49;;;;;;;6.03;1.67;;;;;;;;;;4870105;29;20056;-74
2024/03/05 13:47:21;;;;;;;3.85;0.63;;;;;;;;;;4869235;29;20529;-74
2024/03/05 13:49:53;;;;;;;3.88;1.13;;;;;;;;;;4870160;29;20056;-74
2024/03/05 13:52:25;;;;;;;5.47;0.88;;;;;;;;;;4868760;29;20067;-74
2024/03/05 13:54:56;;;;;;;9.25;1.38;;;;;;;;;;4869685;29;20637;-86
2024/03/05 13:57:29;;;;;;;3.40;0.88;;;;;;;;;;4869959;29;20065;-74
2024/03/05 14:00:00;;;;;;;4.53;0.75;;;;;;;;;;4869713;29;20060;-73
2024/03/05 14:02:39;;;;;;;3.25;0.70;;;;;;;;;;4872564;29;20771;-78
2024/03/05 14:05:11;;;;;;;6.97;0.60;;;;;;;;;;4869847;29;20437;-74
2024/03/05 14:07:44;;;;;;;7.28;0.98;;;;;;;;;;4869742;29;20424;-73
2024/03/05 14:10:15;;;;;;;5.45;0.55;;;;;;;;;;4868505;29;20389;-74
2024/03/05 14:12:48;;;;;;;3.83;0.82;;;;;;;;;;4867767;29;20060;-74
2024/03/05 14:15:22;;;;;;;7.47;0.70;;;;;;;;;;4869998;29;20076;-75
2024/03/05 14:17:53;;;;;;;4.85;1.27;;;;;;;;;;4869361;29;20420;-75
2024/03/05 14:20:27;;;;;;;7.30;0.75;;;;;;;;;;4869557;29;20060;-75
2024/03/05 14:22:59;;;;;;;5.10;1.52;;;;;;;;;;4869951;29;20065;-72
2024/03/05 14:25:29;;;;;;;5.80;0.80;;;;;;;;;;4868870;29;20520;-75
2024/03/05 14:28:02;;;;;;;2.70;0.50;;;;;;;;;;4869584;29;20053;-72
2024/03/05 14:30:34;;;;;;;2.58;0.65;;;;;;;;;;4869732;29;20449;-75
2024/03/05 14:33:05;;;;;;;3.97;0.70;;;;;;;;;;4869768;29;20057;-76
2024/03/05 14:35:36;;;;;;;7.28;0.73;;;;;;;;;;4869648;29;20060;-75
2024/03/05 14:38:16;;;;;;;3.83;0.93;;;;;;;;;;4869356;29;20436;-75
2024/03/05 14:40:54;;;;;;;6.32;1.20;;;;;;;;;;4868208;29;20437;-77
2024/03/05 14:43:24;;;;;;;7.60;0.68;;;;;;;;;;4868524;29;20540;-74
2024/03/05 14:45:55;;;;;;;2.75;0.52;;;;;;;;;;4869079;29;20064;-74
2024/03/05 14:48:27;;;;;;;5.88;0.85;;;;;;;;;;4868019;29;20068;-74
2024/03/05 14:51:00;;;;;;;10.75;0.70;;;;;;;;;;4869260;29;20060;-75
2024/03/05 14:53:33;;;;;;;5.13;0.70;;;;;;;;;;4866871;29;20063;-75
2024/03/05 14:56:09;;;;;;;2.25;0.60;;;;;;;;;;4867875;29;20058;-83
2024/03/05 14:58:41;;;;;;;4.70;0.80;;;;;;;;;;4869536;29;20045;-73
2024/03/05 15:01:13;;;;;;;6.70;1.00;;;;;;;;;;4870116;29;20535;-74
2024/03/05 15:03:51;;;;;;;4.00;0.60;;;;;;;;;;4869231;29;20068;-74
2024/03/05 15:06:21;;;;;;;6.70;0.70;;;;;;;;;;4869370;29;20061;-75
2024/03/05 15:08:53;;;;;;;3.70;0.60;;;;;;;;;;4868827;29;20049;-74
2024/03/05 15:11:24;;;;;;;5.68;1.00;;;;;;;;;;4868768;29;20049;-74
2024/03/05 15:13:55;;;;;;;4.38;0.70;;;;;;;;;;4869004;29;20057;-74
2024/03/05 15:16:26;;;;;;;5.32;0.85;;;;;;;;;;4868761;29;20049;-74
2024/03/05 15:19:00;;;;;;;6.47;0.88;;;;;;;;;;4867372;29;20053;-74
2024/03/05 15:21:31;;;;;;;4.95;0.60;;;;;;;;;;4868921;29;20513;-75